createdAt,value
2018-06-25T00:00:16.471Z,0.80
2018-06-25T00:05:21.857Z,0.70
2018-06-25T00:10:27.135Z,0.60
2018-06-25T00:15:31.880Z,0.87
2018-06-25T00:20:36.832Z,0.77
2018-06-25T00:25:41.789Z,0.60
2018-06-25T00:30:46.753Z,0.50
2018-06-25T00:35:52.045Z,0.77
2018-06-25T00:40:57.041Z,0.70
2018-06-25T00:46:02.110Z,0.63
2018-06-25T00:51:07.198Z,0.60
2018-06-25T00:56:12.420Z,0.70
2018-06-25T01:01:17.565Z,0.60
2018-06-25T01:06:22.593Z,0.73
2018-06-25T01:11:27.562Z,0.60
2018-06-25T01:16:32.715Z,0.60
2018-06-25T01:21:37.840Z,0.60
2018-06-25T01:26:42.921Z,0.70
2018-06-25T01:31:47.887Z,0.60
2018-06-25T01:36:53.061Z,0.70
2018-06-25T01:41:58.202Z,0.60
2018-06-25T01:47:03.126Z,0.60
2018-06-25T01:52:08.209Z,0.60
2018-06-25T01:57:13.426Z,0.57
2018-06-25T02:02:18.448Z,0.53
2018-06-25T02:07:23.562Z,0.60
2018-06-25T02:12:28.635Z,0.50
2018-06-25T02:17:33.636Z,0.50
2018-06-25T02:22:38.674Z,0.50
2018-06-25T02:27:43.858Z,0.50
2018-06-25T02:32:49.114Z,0.60
2018-06-25T02:37:54.250Z,0.60
2018-06-25T02:42:59.436Z,0.50
2018-06-25T02:48:04.561Z,0.50
2018-06-25T02:53:09.568Z,0.40
2018-06-25T02:58:14.628Z,0.50
2018-06-25T03:03:19.746Z,0.60
2018-06-25T03:08:24.820Z,0.50
2018-06-25T03:13:29.672Z,0.50
2018-06-25T03:18:34.781Z,0.53
2018-06-25T03:23:39.994Z,0.50
2018-06-25T03:28:45.282Z,0.50
2018-06-25T03:33:50.582Z,0.40
2018-06-25T03:38:55.429Z,0.50
2018-06-25T03:44:00.641Z,0.50
2018-06-25T03:49:05.733Z,0.50
2018-06-25T03:54:10.922Z,0.50
2018-06-25T03:59:15.868Z,0.60
2018-06-25T04:04:21.374Z,0.53
2018-06-25T04:09:26.660Z,0.60
2018-06-25T04:14:31.965Z,0.70
2018-06-25T04:19:36.982Z,0.80
2018-06-25T04:24:42.264Z,0.77
2018-06-25T04:29:47.283Z,0.63
2018-06-25T04:34:52.480Z,0.90
2018-06-25T04:39:57.820Z,0.77
2018-06-25T04:45:02.946Z,1.00
2018-06-25T04:50:08.413Z,0.77
2018-06-25T04:55:13.921Z,0.70
2018-06-25T05:00:19.138Z,0.83
2018-06-25T05:05:24.600Z,1.10
2018-06-25T05:10:30.132Z,1.00
2018-06-25T05:15:35.426Z,1.00
2018-06-25T05:20:40.546Z,1.00
2018-06-25T05:25:46.721Z,1.10
2018-06-25T05:30:52.030Z,1.10
2018-06-25T05:35:57.123Z,1.27
2018-06-25T05:41:01.294Z,1.10
2018-06-25T05:46:05.750Z,1.10
2018-06-25T05:51:09.883Z,3.00
2018-06-25T05:56:14.011Z,5.00
2018-06-25T06:01:18.143Z,3.90
2018-06-25T06:06:22.552Z,3.97
2018-06-25T06:11:26.668Z,3.60
2018-06-25T06:16:30.846Z,3.33
2018-06-25T06:21:35.254Z,3.40
2018-06-25T06:26:39.461Z,3.90
2018-06-25T06:31:43.716Z,4.37
2018-06-25T06:36:47.828Z,2.70
2018-06-25T06:41:52.064Z,2.67
2018-06-25T06:46:56.399Z,2.10
2018-06-25T06:52:00.525Z,2.30
2018-06-25T06:57:04.652Z,2.97
2018-06-25T07:02:08.891Z,2.13
2018-06-25T07:07:13.117Z,2.70
2018-06-25T07:12:17.366Z,2.50
2018-06-25T07:17:21.483Z,2.60
2018-06-25T07:22:25.616Z,2.47
2018-06-25T07:27:29.726Z,2.50
2018-06-25T07:32:34.075Z,3.07
2018-06-25T07:37:38.300Z,2.97
2018-06-25T07:42:42.418Z,2.90
2018-06-25T07:47:46.588Z,3.30
2018-06-25T07:52:50.699Z,3.07
2018-06-25T07:57:54.903Z,3.20
2018-06-25T08:02:59.033Z,3.90
2018-06-25T08:08:03.384Z,3.07
2018-06-25T08:13:07.610Z,2.57
2018-06-25T08:18:11.723Z,2.50
2018-06-25T08:23:15.827Z,2.53
2018-06-25T08:28:19.943Z,2.30
2018-06-25T08:33:24.044Z,2.37
2018-06-25T08:38:28.194Z,2.33
2018-06-25T08:43:32.385Z,1.90
2018-06-25T08:48:36.496Z,1.90
2018-06-25T08:53:40.750Z,2.10
2018-06-25T08:58:44.877Z,1.93
2018-06-25T09:03:49.513Z,1.53
2018-06-25T09:08:53.662Z,1.70
2018-06-25T09:13:57.831Z,1.53
2018-06-25T09:19:02.103Z,1.40
2018-06-25T09:24:06.399Z,1.70
2018-06-25T09:29:11.750Z,1.70
2018-06-25T09:34:21.323Z,1.70
2018-06-25T09:39:25.441Z,1.60
2018-06-25T09:44:29.569Z,1.63
2018-06-25T09:49:33.683Z,1.50
2018-06-25T09:54:38.007Z,1.80
2018-06-25T09:59:42.142Z,1.67
2018-06-25T10:04:46.338Z,1.60
2018-06-25T10:09:50.542Z,1.73
2018-06-25T10:14:54.851Z,1.60
2018-06-25T10:19:59.023Z,1.70
2018-06-25T10:25:03.255Z,1.93
2018-06-25T10:30:07.590Z,1.60
2018-06-25T10:35:11.699Z,1.50
2018-06-25T10:40:15.819Z,1.20
2018-06-25T10:45:19.918Z,1.40
2018-06-25T10:50:24.123Z,1.20
2018-06-25T10:55:29.085Z,1.27
2018-06-25T11:00:33.382Z,1.40
2018-06-25T11:05:37.777Z,1.30
2018-06-25T11:10:41.908Z,1.17
2018-06-25T11:15:46.184Z,1.30
2018-06-25T11:20:50.444Z,1.10
2018-06-25T11:25:54.583Z,1.30
2018-06-25T11:30:58.683Z,1.20
2018-06-25T11:36:02.791Z,1.17
2018-06-25T11:41:07.088Z,1.10
2018-06-25T11:46:11.457Z,1.00
2018-06-25T11:51:15.575Z,0.93
2018-06-25T11:56:19.918Z,1.07
2018-06-25T12:01:24.011Z,0.90
2018-06-25T12:06:28.388Z,1.20
2018-06-25T12:11:32.500Z,1.30
2018-06-25T12:16:36.799Z,1.40
2018-06-25T12:21:41.079Z,0.90
2018-06-25T12:26:45.303Z,1.00
2018-06-25T12:31:49.491Z,1.20
2018-06-25T12:36:53.673Z,1.00
2018-06-25T12:41:57.947Z,1.30
2018-06-25T12:47:02.135Z,1.40
2018-06-25T12:52:06.434Z,1.23
2018-06-25T12:57:10.750Z,0.90
2018-06-25T13:02:14.931Z,1.13
2018-06-25T13:07:19.076Z,1.40
2018-06-25T13:12:23.199Z,1.37
2018-06-25T13:17:27.524Z,1.00
2018-06-25T13:22:32.231Z,0.83
2018-06-25T13:27:36.693Z,1.20
2018-06-25T13:32:40.822Z,1.10
2018-06-25T13:37:44.944Z,1.20
2018-06-25T13:42:49.068Z,1.20
2018-06-25T13:47:53.314Z,1.10
2018-06-25T13:52:57.583Z,1.13
2018-06-25T13:58:01.713Z,1.30
2018-06-25T14:03:05.875Z,1.20
2018-06-25T14:08:10.032Z,1.10
2018-06-25T14:13:14.303Z,1.30
2018-06-25T14:18:18.410Z,1.10
2018-06-25T14:23:22.526Z,1.57
2018-06-25T14:28:33.108Z,1.20
2018-06-25T14:33:42.792Z,1.17
2018-06-25T14:38:47.355Z,1.40
2018-06-25T14:43:51.638Z,1.30
2018-06-25T14:48:56.625Z,1.20
2018-06-25T14:54:01.011Z,1.20
2018-06-25T14:59:06.368Z,1.30
2018-06-25T15:04:11.265Z,1.40
2018-06-25T15:09:15.647Z,1.10
2018-06-25T15:14:20.284Z,1.20
2018-06-25T15:19:24.628Z,1.03
2018-06-25T15:24:29.475Z,1.00
2018-06-25T15:29:33.599Z,1.23
2018-06-25T15:34:37.706Z,1.40
2018-06-25T15:39:41.816Z,1.30
2018-06-25T15:44:45.932Z,1.73
2018-06-25T15:49:50.027Z,1.10
2018-06-25T15:54:54.443Z,1.20
2018-06-25T15:59:58.598Z,1.10
2018-06-25T16:05:02.819Z,1.53
2018-06-25T16:10:06.947Z,1.67
2018-06-25T16:15:11.045Z,1.40
2018-06-25T16:20:15.332Z,1.63
2018-06-25T16:25:19.444Z,1.63
2018-06-25T16:30:23.575Z,1.87
2018-06-25T16:35:27.696Z,1.50
2018-06-25T16:40:32.691Z,1.50
2018-06-25T16:45:36.822Z,1.50
2018-06-25T16:50:41.000Z,1.60
2018-06-25T16:55:45.136Z,1.70
2018-06-25T17:00:49.346Z,1.67
2018-06-25T17:05:53.486Z,1.53
2018-06-25T17:10:58.327Z,1.40
2018-06-25T17:16:02.471Z,1.60
2018-06-25T17:21:06.587Z,1.20
2018-06-25T17:26:10.717Z,1.50
2018-06-25T17:31:14.835Z,1.57
2018-06-25T17:36:19.373Z,1.60
2018-06-25T17:41:23.478Z,1.70
2018-06-25T17:46:27.578Z,1.67
2018-06-25T17:51:31.767Z,1.50
2018-06-25T17:56:36.101Z,1.30
2018-06-25T18:01:40.278Z,1.43
2018-06-25T18:06:44.406Z,1.50
2018-06-25T18:11:48.691Z,1.80
2018-06-25T18:16:52.886Z,1.33
2018-06-25T18:21:57.011Z,1.60
2018-06-25T18:27:01.128Z,1.27
2018-06-25T18:32:06.597Z,1.50
2018-06-25T18:37:10.704Z,1.50
2018-06-25T18:42:14.855Z,1.30
2018-06-25T18:47:19.023Z,1.43
2018-06-25T18:52:23.402Z,1.53
2018-06-25T18:57:27.686Z,1.30
2018-06-25T19:02:31.915Z,1.40
2018-06-25T19:07:36.041Z,1.20
2018-06-25T19:12:40.308Z,1.43
2018-06-25T19:17:44.504Z,1.47
2018-06-25T19:22:48.838Z,1.40
2018-06-25T19:27:53.079Z,1.23
2018-06-25T19:32:57.242Z,1.40
2018-06-25T19:38:01.540Z,1.33
2018-06-25T19:43:05.648Z,1.23
2018-06-25T19:48:09.863Z,1.43
2018-06-25T19:53:14.060Z,1.80
2018-06-25T19:58:18.352Z,1.50
2018-06-25T20:03:22.472Z,1.67
2018-06-25T20:08:26.723Z,1.60
2018-06-25T20:13:30.849Z,1.23
2018-06-25T20:18:34.955Z,1.53
2018-06-25T20:23:39.080Z,1.70
2018-06-25T20:28:43.235Z,1.97
2018-06-25T20:33:47.339Z,2.30
2018-06-25T20:38:51.495Z,1.67
2018-06-25T20:43:55.599Z,2.07
2018-06-25T20:48:59.954Z,1.80
2018-06-25T20:54:04.082Z,1.67
2018-06-25T20:59:08.232Z,1.70
2018-06-25T21:04:12.433Z,1.90
2018-06-25T21:09:16.559Z,1.90
2018-06-25T21:14:20.692Z,1.80
2018-06-25T21:19:24.941Z,2.23
2018-06-25T21:24:29.051Z,1.80
2018-06-25T21:29:33.391Z,1.90
2018-06-25T21:34:37.490Z,1.67
2018-06-25T21:39:41.655Z,1.80
2018-06-25T21:44:45.771Z,1.90
2018-06-25T21:49:50.001Z,1.47
2018-06-25T21:54:54.270Z,1.83
2018-06-25T21:59:58.503Z,1.73
2018-06-25T22:05:02.788Z,1.80
2018-06-25T22:10:07.655Z,1.77
2018-06-25T22:15:11.873Z,1.67
2018-06-25T22:20:15.992Z,1.70
2018-06-25T22:25:20.120Z,2.23
2018-06-25T22:30:24.467Z,1.67
2018-06-25T22:35:28.706Z,1.40
2018-06-25T22:40:32.810Z,1.90
2018-06-25T22:45:37.066Z,1.73
2018-06-25T22:50:41.184Z,2.00
2018-06-25T22:55:45.312Z,1.77
2018-06-25T23:00:49.564Z,2.00
2018-06-25T23:05:53.410Z,2.00
2018-06-25T23:10:57.427Z,2.00
2018-06-25T23:16:01.622Z,1.90
2018-06-25T23:21:06.065Z,1.90
2018-06-25T23:26:10.289Z,1.67
2018-06-25T23:31:14.537Z,2.00
2018-06-25T23:36:18.751Z,1.83
2018-06-25T23:41:22.997Z,2.17
2018-06-25T23:46:27.101Z,2.30
2018-06-25T23:51:31.235Z,1.90
2018-06-25T23:56:35.350Z,1.70
